Time;durP1;ratioP1;P1;durP2;ratioP2;P2;SDS_P1;SDS_P2;PMS_P1;PMS_P2;Temp;Humidity;BMP_temperature;BMP_pressure;BME280_temperature;BME280_humidity;BME280_pressure;Samples;Min_cycle;Max_cycle;Signal;HPM_P1;HPM_P2
2022/12/25 00:02:03;;;;;;;4.57;4.00;;;18.40;55.70;;;;;;5054610;28;20680;-62
2022/12/25 00:04:28;;;;;;;4.78;3.67;;;18.30;55.70;;;;;;5054244;28;20622;-63
2022/12/25 00:06:54;;;;;;;4.40;3.42;;;18.40;55.80;;;;;;5053292;28;20175;-62
2022/12/25 00:09:20;;;;;;;4.90;3.63;;;18.30;55.70;;;;;;5054476;28;20191;-62
2022/12/25 00:11:45;;;;;;;5.38;3.70;;;18.30;55.70;;;;;;5053223;28;20544;-62
2022/12/25 00:14:11;;;;;;;4.35;3.47;;;18.30;55.70;;;;;;5053796;28;20270;-63
2022/12/25 00:16:36;;;;;;;3.83;3.33;;;18.30;55.70;;;;;;5053826;28;20230;-63
2022/12/25 00:19:02;;;;;;;3.63;3.33;;;18.30;55.70;;;;;;5053307;28;20367;-64
2022/12/25 00:21:27;;;;;;;3.25;2.95;;;18.30;55.70;;;;;;5053824;28;20214;-63
2022/12/25 00:23:54;;;;;;;3.95;3.20;;;18.20;55.70;;;;;;5053839;28;20190;-63
2022/12/25 00:26:19;;;;;;;5.07;4.15;;;18.30;55.70;;;;;;5053370;28;20171;-62
2022/12/25 00:28:45;;;;;;;3.70;3.15;;;18.20;55.70;;;;;;5053514;28;20179;-62
2022/12/25 00:31:12;;;;;;;3.75;3.35;;;18.20;56.30;;;;;;5053807;28;20172;-62
2022/12/25 00:33:38;;;;;;;4.18;3.60;;;18.20;55.70;;;;;;5052987;28;20179;-62
2022/12/25 00:36:08;;;;;;;3.95;3.55;;;18.20;55.70;;;;;;5053912;28;20179;-63
2022/12/25 00:38:34;;;;;;;4.15;3.50;;;18.20;56.40;;;;;;5053418;28;20637;-63
2022/12/25 00:41:06;;;;;;;5.60;3.50;;;18.20;55.70;;;;;;5052742;28;20203;-63
2022/12/25 00:43:31;;;;;;;3.90;3.03;;;18.20;55.70;;;;;;5053455;28;20218;-63
2022/12/25 00:45:59;;;;;;;3.30;3.00;;;18.20;55.70;;;;;;5053491;28;20167;-62
2022/12/25 00:48:24;;;;;;;4.53;3.17;;;18.10;55.70;;;;;;5052781;28;20645;-63
2022/12/25 00:50:57;;;;;;;3.75;3.35;;;18.10;55.70;;;;;;5053368;28;20282;-62
2022/12/25 00:53:23;;;;;;;3.28;2.97;;;18.10;55.60;;;;;;5053424;28;20710;-62
2022/12/25 00:56:00;;;;;;;3.83;3.35;;;18.10;55.70;;;;;;5052501;28;20179;-62
2022/12/25 00:58:26;;;;;;;3.58;3.28;;;18.00;55.60;;;;;;5057667;28;20579;-63
2022/12/25 01:00:51;;;;;;;3.80;2.60;;;18.10;55.60;;;;;;5073016;28;20645;-62
2022/12/25 01:03:17;;;;;;;3.63;3.13;;;18.10;55.70;;;;;;5072574;28;20210;-63
2022/12/25 01:05:43;;;;;;;3.83;2.95;;;18.10;55.60;;;;;;5072901;28;20187;-62
2022/12/25 01:08:09;;;;;;;4.68;3.13;;;18.10;55.70;;;;;;5072734;28;20531;-62
2022/12/25 01:10:34;;;;;;;3.67;3.10;;;18.10;55.70;;;;;;5073098;28;20170;-62
2022/12/25 01:13:00;;;;;;;3.47;3.15;;;18.00;55.60;;;;;;5073224;28;20681;-62
2022/12/25 01:15:25;;;;;;;3.53;3.05;;;18.00;55.70;;;;;;5072259;28;20210;-63
2022/12/25 01:17:51;;;;;;;5.47;3.17;;;18.00;55.70;;;;;;5072736;28;20185;-63
2022/12/25 01:20:16;;;;;;;3.20;2.90;;;18.00;55.60;;;;;;5073013;28;20193;-63
2022/12/25 01:22:43;;;;;;;4.30;3.38;;;18.00;55.70;;;;;;5071907;28;20214;-62
2022/12/25 01:25:09;;;;;;;3.42;3.10;;;18.00;55.70;;;;;;5072727;28;20228;-63
2022/12/25 01:27:34;;;;;;;3.83;3.22;;;18.00;55.70;;;;;;5072557;28;20178;-62
2022/12/25 01:30:00;;;;;;;3.05;2.42;;;18.00;55.70;;;;;;5072446;28;20174;-62
2022/12/25 01:32:25;;;;;;;3.90;3.47;;;18.00;55.70;;;;;;5073223;28;20174;-62
2022/12/25 01:34:51;;;;;;;3.50;2.90;;;18.00;55.70;;;;;;5072833;28;20261;-63
2022/12/25 01:37:17;;;;;;;3.55;3.25;;;18.00;55.70;;;;;;5072204;28;20177;-63
2022/12/25 01:39:42;;;;;;;3.20;2.90;;;18.00;55.70;;;;;;5072572;28;20179;-63
2022/12/25 01:42:18;;;;;;;3.65;3.25;;;18.00;55.70;;;;;;5072977;28;20263;-63
2022/12/25 01:44:47;;;;;;;3.95;3.30;;;18.00;55.70;;;;;;5071699;28;20519;-63
2022/12/25 01:47:12;;;;;;;4.88;3.20;;;17.90;55.70;;;;;;5072979;28;20254;-62
2022/12/25 01:49:39;;;;;;;3.30;2.90;;;18.00;55.70;;;;;;5071508;28;20261;-62
2022/12/25 01:52:11;;;;;;;3.20;2.90;;;18.00;55.70;;;;;;5072226;28;20181;-62
2022/12/25 01:54:44;;;;;;;3.72;3.00;;;17.90;55.70;;;;;;5071473;28;20531;-62
2022/12/25 01:57:14;;;;;;;3.35;3.05;;;17.90;55.70;;;;;;5073167;28;20205;-62
2022/12/25 01:59:39;;;;;;;3.42;2.72;;;17.90;55.70;;;;;;5056334;28;20661;-62
2022/12/25 02:02:05;;;;;;;3.67;3.15;;;17.90;55.70;;;;;;5051279;28;20214;-62
2022/12/25 02:04:37;;;;;;;3.42;3.05;;;17.90;55.70;;;;;;5051501;28;20175;-63
2022/12/25 02:07:13;;;;;;;3.85;3.30;;;17.90;55.70;;;;;;5052620;28;20187;-62
2022/12/25 02:09:38;;;;;;;3.30;3.00;;;17.90;55.70;;;;;;5052081;28;20194;-62
2022/12/25 02:12:05;;;;;;;3.15;2.70;;;17.90;55.70;;;;;;5052086;28;20218;-62
2022/12/25 02:14:31;;;;;;;3.00;2.70;;;17.90;55.70;;;;;;5052720;28;20171;-62
2022/12/25 02:17:24;;;;;;;3.47;2.80;;;17.90;55.70;;;;;;5051466;28;20339;-64
2022/12/25 02:20:13;;;;;;;3.35;2.90;;;17.90;55.70;;;;;;5050591;28;20164;-64
2022/12/25 02:23:16;;;;;;;2.83;2.63;;;17.90;55.70;;;;;;5051161;28;20226;-62
2022/12/25 02:26:01;;;;;;;3.35;3.05;;;17.80;55.70;;;;;;5051434;28;20186;-62
2022/12/25 02:28:56;;;;;;;3.22;2.92;;;17.80;55.70;;;;;;5052396;28;20171;-62
2022/12/25 02:31:38;;;;;;;2.72;2.50;;;17.80;55.70;;;;;;5051110;28;20703;-62
2022/12/25 02:34:13;;;;;;;3.00;2.67;;;17.80;55.70;;;;;;5050620;28;20183;-63
2022/12/25 02:36:47;;;;;;;2.97;2.65;;;17.80;55.70;;;;;;5051194;28;20175;-63
2022/12/25 02:40:00;;;;;;;3.72;3.13;;;17.80;55.70;;;;;;5054989;28;20202;-63
2022/12/25 03:07:26;;;;;;;2.90;2.40;;;17.70;55.70;;;;;;5074731;28;20201;-62
2022/12/25 03:12:54;;;;;;;2.67;2.40;;;17.70;55.70;;;;;;5074226;28;20190;-62
2022/12/25 03:18:05;;;;;;;2.95;2.65;;;17.70;56.10;;;;;;5074347;28;20181;-63
2022/12/25 03:28:46;;;;;;;4.63;3.28;;;17.70;55.70;;;;;;5074246;28;20186;-63
2022/12/25 03:31:26;;;;;;;5.38;2.95;;;17.70;55.70;;;;;;5075338;28;20547;-63
2022/12/25 04:38:04;;;;;;;2.88;2.33;;;17.50;55.80;;;;;;5053742;28;20635;-62
2022/12/25 04:40:29;;;;;;;2.40;2.20;;;17.50;55.80;;;;;;5053025;28;20167;-62
2022/12/25 04:42:55;;;;;;;2.75;2.30;;;17.50;55.80;;;;;;5053349;28;20245;-62
2022/12/25 04:45:21;;;;;;;3.13;2.33;;;17.50;55.80;;;;;;5053741;28;20167;-62
2022/12/25 04:47:46;;;;;;;2.35;2.08;;;17.50;55.80;;;;;;5052602;28;20171;-61
2022/12/25 04:50:11;;;;;;;2.92;2.40;;;17.50;55.80;;;;;;5053773;28;20173;-61
2022/12/25 04:52:38;;;;;;;2.60;2.10;;;17.50;55.80;;;;;;5053442;28;20316;-61
2022/12/25 04:55:04;;;;;;;1.88;1.77;;;17.50;55.80;;;;;;5052817;28;20182;-62
2022/12/25 04:57:30;;;;;;;2.95;2.40;;;17.40;55.80;;;;;;5053573;28;20175;-61
2022/12/25 04:59:55;;;;;;;2.28;2.10;;;17.50;55.80;;;;;;5053273;28;20175;-62
2022/12/25 05:02:21;;;;;;;2.65;2.33;;;17.40;55.80;;;;;;5052523;28;20210;-61
2022/12/25 05:04:46;;;;;;;2.53;2.33;;;17.40;55.80;;;;;;5052939;28;20679;-62
2022/12/25 05:07:12;;;;;;;2.03;1.88;;;17.40;55.80;;;;;;5052516;28;20176;-61
2022/12/25 05:09:40;;;;;;;2.45;2.25;;;17.40;55.80;;;;;;5053135;28;20175;-61
2022/12/25 05:12:06;;;;;;;2.35;2.15;;;17.40;55.80;;;;;;5053382;28;20175;-61
2022/12/25 05:14:32;;;;;;;2.67;2.17;;;17.40;55.90;;;;;;5052261;28;20175;-61
2022/12/25 05:16:57;;;;;;;2.40;2.20;;;17.40;55.90;;;;;;5052971;28;20658;-62
2022/12/25 05:19:23;;;;;;;2.75;2.10;;;17.40;55.90;;;;;;5053247;28;20215;-62
2022/12/25 05:21:48;;;;;;;2.35;2.13;;;17.40;55.80;;;;;;5051890;28;20275;-60
2022/12/25 05:24:14;;;;;;;2.20;2.00;;;17.40;55.90;;;;;;5052941;28;20171;-62
2022/12/25 05:26:40;;;;;;;2.30;2.05;;;17.40;55.80;;;;;;5052597;28;20175;-61
2022/12/25 05:29:05;;;;;;;2.05;1.88;;;17.40;55.90;;;;;;5052277;28;20198;-61
2022/12/25 05:31:31;;;;;;;2.13;1.85;;;17.30;55.80;;;;;;5052758;28;20174;-61
2022/12/25 05:33:56;;;;;;;2.13;1.95;;;17.30;55.80;;;;;;5052900;28;20175;-61
2022/12/25 05:36:22;;;;;;;2.92;2.22;;;17.30;55.80;;;;;;5052407;28;20170;-62
2022/12/25 05:38:47;;;;;;;2.65;1.95;;;17.40;55.90;;;;;;5052653;28;20178;-62
2022/12/25 05:41:13;;;;;;;2.20;1.90;;;17.30;55.80;;;;;;5052842;28;20230;-62
2022/12/25 05:43:38;;;;;;;2.15;1.85;;;17.30;55.80;;;;;;5051911;28;20262;-63
2022/12/25 05:46:05;;;;;;;2.50;2.15;;;17.30;55.80;;;;;;5052693;28;20263;-63
2022/12/25 05:48:32;;;;;;;1.80;1.67;;;17.40;55.80;;;;;;5052726;28;20193;-62
2022/12/25 05:51:01;;;;;;;2.45;2.10;;;17.30;55.80;;;;;;5052303;28;20211;-62
2022/12/25 05:53:27;;;;;;;2.20;2.00;;;17.30;55.80;;;;;;5052595;28;20179;-62
2022/12/25 05:55:52;;;;;;;1.95;1.75;;;17.30;55.80;;;;;;5052448;28;20174;-62
2022/12/25 05:58:18;;;;;;;1.70;1.60;;;17.30;55.80;;;;;;5055139;28;20186;-62
2022/12/25 06:00:44;;;;;;;2.42;2.20;;;17.30;55.80;;;;;;5072461;28;20170;-62
2022/12/25 06:03:09;;;;;;;2.58;2.20;;;17.30;55.80;;;;;;5072884;28;20218;-62
2022/12/25 06:05:36;;;;;;;2.42;2.08;;;17.30;55.80;;;;;;5071594;28;20177;-62
2022/12/25 06:08:02;;;;;;;2.17;1.90;;;17.30;55.80;;;;;;5072787;28;20194;-62
2022/12/25 06:10:27;;;;;;;2.17;1.98;;;17.30;55.90;;;;;;5071973;28;20175;-62
2022/12/25 06:12:53;;;;;;;2.38;2.15;;;17.30;55.90;;;;;;5074978;28;20174;-62
2022/12/25 06:15:19;;;;;;;2.20;1.92;;;17.20;55.80;;;;;;5076270;28;20218;-62
2022/12/25 06:17:44;;;;;;;3.55;2.28;;;17.20;55.80;;;;;;5075755;28;20178;-63
2022/12/25 06:20:10;;;;;;;3.70;1.98;;;17.20;55.80;;;;;;5076423;28;20695;-63
2022/12/25 06:22:35;;;;;;;2.38;2.17;;;17.20;55.80;;;;;;5075923;28;20327;-62
2022/12/25 06:25:01;;;;;;;2.90;2.15;;;17.20;55.80;;;;;;5075724;28;20236;-63
2022/12/25 06:27:27;;;;;;;1.88;1.75;;;17.20;55.80;;;;;;5076278;28;20523;-62
2022/12/25 06:29:52;;;;;;;1.92;1.83;;;17.20;55.80;;;;;;5076120;28;20193;-62
2022/12/25 06:32:18;;;;;;;2.28;2.08;;;17.30;55.90;;;;;;5075697;28;20645;-63
2022/12/25 06:34:44;;;;;;;2.03;1.83;;;17.20;55.80;;;;;;5076074;28;20538;-63
2022/12/25 06:37:09;;;;;;;3.80;1.88;;;17.20;55.80;;;;;;5076208;28;20526;-63
2022/12/25 06:39:35;;;;;;;2.72;1.75;;;17.20;55.80;;;;;;5075261;28;20163;-63
2022/12/25 06:42:00;;;;;;;3.83;2.10;;;17.20;55.80;;;;;;5076207;28;20313;-63
2022/12/25 06:44:26;;;;;;;2.17;1.83;;;17.20;55.80;;;;;;5075867;28;20178;-63
2022/12/25 06:46:52;;;;;;;1.77;1.50;;;17.10;55.80;;;;;;5074868;28;20175;-62
2022/12/25 06:49:18;;;;;;;2.45;1.80;;;17.20;55.80;;;;;;5076151;28;20186;-62
2022/12/25 06:51:43;;;;;;;2.78;1.85;;;17.20;55.80;;;;;;5075457;28;20556;-61
2022/12/25 06:54:09;;;;;;;1.80;1.70;;;17.20;55.80;;;;;;5075228;28;20178;-62
2022/12/25 06:56:34;;;;;;;1.52;1.40;;;17.10;55.80;;;;;;5075575;28;20174;-62
2022/12/25 06:59:02;;;;;;;2.67;1.90;;;17.10;55.80;;;;;;5066477;28;20171;-62
2022/12/25 07:01:46;;;;;;;1.98;1.70;;;17.10;55.80;;;;;;5054864;28;20579;-62
2022/12/25 07:04:26;;;;;;;2.13;1.92;;;17.10;55.80;;;;;;5055580;28;20642;-62
2022/12/25 07:06:51;;;;;;;1.90;1.70;;;17.10;55.80;;;;;;5053567;28;20174;-62
2022/12/25 07:09:17;;;;;;;1.98;1.88;;;17.10;55.80;;;;;;5055490;28;20174;-62
2022/12/25 07:11:43;;;;;;;2.42;1.80;;;17.10;55.80;;;;;;5055133;28;20266;-61
2022/12/25 07:14:17;;;;;;;2.67;2.03;;;17.10;55.80;;;;;;5054645;28;20617;-62
2022/12/25 07:16:43;;;;;;;1.90;1.75;;;17.10;55.80;;;;;;5053970;28;20348;-62
2022/12/25 07:19:09;;;;;;;1.73;1.60;;;17.10;55.90;;;;;;5055326;28;20224;-63
2022/12/25 07:21:34;;;;;;;2.10;1.90;;;17.10;55.90;;;;;;5054247;28;20298;-62
2022/12/25 07:24:00;;;;;;;2.03;1.60;;;17.10;55.80;;;;;;5054292;28;20229;-63
2022/12/25 07:26:25;;;;;;;2.75;1.83;;;17.10;55.90;;;;;;5055082;28;20179;-62
2022/12/25 07:28:51;;;;;;;2.13;1.92;;;17.10;55.90;;;;;;5054111;28;20229;-62
2022/12/25 07:31:16;;;;;;;1.50;1.40;;;17.10;55.90;;;;;;5055125;28;20186;-62
2022/12/25 07:33:42;;;;;;;2.03;1.80;;;17.10;55.90;;;;;;5054743;28;20207;-62
2022/12/25 07:36:08;;;;;;;1.80;1.65;;;17.00;55.80;;;;;;5054323;28;20206;-62
2022/12/25 07:38:34;;;;;;;2.15;1.70;;;17.00;55.80;;;;;;5054615;28;20262;-63
2022/12/25 07:40:59;;;;;;;1.73;1.63;;;17.10;55.90;;;;;;5055052;28;20696;-63
2022/12/25 07:43:25;;;;;;;2.50;1.60;;;17.00;55.80;;;;;;5054442;28;20186;-63
2022/12/25 07:45:57;;;;;;;1.80;1.45;;;17.00;55.90;;;;;;5054726;28;20186;-63
2022/12/25 07:48:23;;;;;;;1.85;1.60;;;17.00;55.90;;;;;;5054796;28;20182;-62
2022/12/25 07:50:58;;;;;;;1.60;1.50;;;17.00;55.90;;;;;;5053827;28;20186;-61
2022/12/25 07:53:23;;;;;;;1.70;1.60;;;17.00;55.80;;;;;;5054686;28;20583;-62
2022/12/25 07:55:58;;;;;;;1.50;1.40;;;17.00;55.90;;;;;;5054463;28;20637;-61
2022/12/25 07:58:23;;;;;;;1.80;1.63;;;17.00;55.90;;;;;;5058515;28;20632;-62
2022/12/25 08:00:49;;;;;;;1.67;1.58;;;17.00;55.90;;;;;;5074213;28;20181;-62
2022/12/25 08:03:15;;;;;;;1.70;1.60;;;17.00;55.90;;;;;;5073913;28;20214;-63
2022/12/25 08:05:41;;;;;;;1.67;1.50;;;17.00;55.90;;;;;;5074184;28;20175;-62
2022/12/25 08:08:06;;;;;;;3.67;2.10;;;17.00;55.90;;;;;;5074570;28;20174;-62
2022/12/25 08:10:32;;;;;;;2.15;1.77;;;16.90;55.90;;;;;;5073486;28;20546;-67
2022/12/25 08:12:57;;;;;;;1.77;1.67;;;17.00;56.20;;;;;;5074467;28;20216;-67
2022/12/25 08:15:23;;;;;;;2.10;1.77;;;16.90;55.90;;;;;;5074139;28;20643;-68
2022/12/25 08:17:48;;;;;;;1.77;1.67;;;17.00;56.00;;;;;;5073245;28;20538;-68
2022/12/25 08:20:14;;;;;;;1.73;1.50;;;17.00;56.00;;;;;;5074160;28;20536;-68
2022/12/25 08:22:39;;;;;;;1.83;1.73;;;17.00;56.00;;;;;;5073925;28;20566;-69
2022/12/25 08:25:05;;;;;;;1.52;1.40;;;17.00;56.00;;;;;;5073514;28;20553;-68
2022/12/25 08:27:31;;;;;;;1.52;1.42;;;17.00;56.00;;;;;;5073996;28;20316;-67
2022/12/25 08:29:56;;;;;;;1.50;1.40;;;16.90;55.90;;;;;;5074162;28;20171;-67
2022/12/25 08:32:22;;;;;;;1.92;1.80;;;16.90;55.90;;;;;;5073309;28;20182;-67
2022/12/25 08:34:48;;;;;;;1.77;1.50;;;16.90;55.90;;;;;;5073344;28;20178;-67
2022/12/25 08:37:13;;;;;;;1.73;1.60;;;16.90;55.90;;;;;;5073850;28;20569;-70
2022/12/25 08:39:39;;;;;;;1.70;1.60;;;16.90;55.90;;;;;;5072872;28;20179;-68
2022/12/25 08:42:04;;;;;;;1.92;1.42;;;16.90;56.00;;;;;;5073784;28;20237;-67
2022/12/25 08:44:30;;;;;;;1.60;1.50;;;16.90;55.90;;;;;;5073590;28;20171;-68
2022/12/25 08:46:55;;;;;;;1.70;1.60;;;16.90;55.90;;;;;;5073108;28;20186;-67
2022/12/25 08:49:21;;;;;;;3.15;1.63;;;16.90;55.90;;;;;;5073684;28;20244;-66
2022/12/25 08:51:46;;;;;;;1.58;1.48;;;16.90;56.00;;;;;;5073180;28;20240;-67
2022/12/25 08:54:12;;;;;;;2.40;1.88;;;16.90;56.00;;;;;;5072733;28;20174;-67
2022/12/25 08:56:37;;;;;;;1.70;1.60;;;16.90;56.00;;;;;;5073137;28;20185;-68
2022/12/25 08:59:03;;;;;;;1.90;1.75;;;16.90;56.00;;;;;;5063892;28;20266;-68
2022/12/25 09:01:28;;;;;;;1.58;1.48;;;16.90;56.00;;;;;;5052559;28;20253;-66
2022/12/25 09:03:54;;;;;;;2.13;1.40;;;16.80;55.90;;;;;;5053053;28;20179;-67
2022/12/25 09:06:20;;;;;;;1.65;1.55;;;16.80;55.90;;;;;;5052496;28;20186;-66
2022/12/25 09:08:45;;;;;;;2.80;2.20;;;16.80;55.90;;;;;;5052899;28;20228;-66
2022/12/25 09:11:11;;;;;;;1.63;1.52;;;16.80;55.90;;;;;;5053193;28;20186;-67
2022/12/25 09:13:37;;;;;;;1.58;1.45;;;16.90;56.00;;;;;;5052285;28;20207;-68
2022/12/25 09:16:06;;;;;;;1.75;1.65;;;16.80;55.90;;;;;;5053124;28;20254;-68
2022/12/25 09:18:32;;;;;;;1.80;1.70;;;16.80;56.00;;;;;;5052872;28;20175;-69
2022/12/25 09:20:59;;;;;;;1.50;1.40;;;16.80;55.90;;;;;;5052126;28;20809;-68
2022/12/25 09:23:25;;;;;;;1.70;1.60;;;16.80;56.60;;;;;;5053295;28;20183;-69
2022/12/25 09:25:50;;;;;;;1.83;1.65;;;16.80;56.00;;;;;;5052828;28;20229;-67
2022/12/25 09:28:16;;;;;;;1.60;1.50;;;16.80;56.00;;;;;;5052444;28;20167;-67
2022/12/25 09:30:41;;;;;;;1.70;1.45;;;16.80;56.00;;;;;;5052823;28;20206;-67
2022/12/25 09:33:07;;;;;;;1.77;1.65;;;16.80;56.00;;;;;;5052939;28;20194;-66
2022/12/25 09:35:32;;;;;;;1.90;1.80;;;16.80;56.00;;;;;;5051960;28;20186;-67
2022/12/25 09:37:58;;;;;;;1.70;1.52;;;16.80;56.00;;;;;;5053017;28;20179;-67
2022/12/25 09:40:23;;;;;;;1.75;1.40;;;16.80;56.00;;;;;;5052667;28;20171;-67
2022/12/25 09:42:50;;;;;;;3.55;1.90;;;16.80;56.00;;;;;;5034215;28;20298;-67
2022/12/25 09:45:33;;;;;;;2.05;1.55;;;16.80;56.00;;;;;;5034991;28;20182;-66
2022/12/25 09:47:58;;;;;;;1.60;1.50;;;16.70;56.00;;;;;;5050820;28;20641;-67
2022/12/25 09:50:45;;;;;;;1.70;1.60;;;16.80;56.00;;;;;;5052264;28;20175;-67
2022/12/25 09:53:15;;;;;;;1.90;1.65;;;16.80;56.00;;;;;;5051999;28;20178;-67
2022/12/25 09:55:47;;;;;;;1.92;1.63;;;16.80;56.00;;;;;;5051936;28;20171;-67
2022/12/25 09:58:13;;;;;;;1.50;1.40;;;16.70;56.00;;;;;;5035446;28;20187;-67
2022/12/25 10:00:45;;;;;;;1.88;1.70;;;16.80;56.00;;;;;;5052551;28;20171;-67
2022/12/25 10:03:23;;;;;;;1.85;1.75;;;16.70;56.00;;;;;;5050843;28;20219;-67
2022/12/25 10:06:01;;;;;;;2.03;1.65;;;16.70;56.00;;;;;;5051270;28;20182;-66
2022/12/25 10:08:38;;;;;;;1.83;1.42;;;16.70;56.00;;;;;;5051359;28;20672;-66
2022/12/25 10:11:04;;;;;;;2.25;1.55;;;16.80;56.00;;;;;;5052102;28;20170;-68
2022/12/25 10:13:52;;;;;;;1.50;1.40;;;16.70;56.00;;;;;;5052722;28;20179;-67
2022/12/25 10:16:23;;;;;;;1.50;1.40;;;16.70;56.00;;;;;;5051269;28;20311;-67
2022/12/25 10:19:08;;;;;;;1.48;1.38;;;16.70;56.00;;;;;;5051515;28;20270;-68
2022/12/25 10:21:34;;;;;;;1.92;1.75;;;16.70;56.00;;;;;;5051375;28;20301;-67
2022/12/25 10:24:09;;;;;;;1.60;1.45;;;16.70;56.00;;;;;;5050627;28;20597;-67
2022/12/25 10:26:35;;;;;;;1.77;1.58;;;16.70;56.00;;;;;;5050643;28;20190;-67
2022/12/25 10:29:14;;;;;;;1.77;1.67;;;16.70;56.00;;;;;;5052477;28;20649;-66
2022/12/25 10:31:40;;;;;;;2.08;1.85;;;16.70;56.00;;;;;;5051262;28;20228;-66
2022/12/25 10:34:06;;;;;;;3.58;1.92;;;16.70;56.00;;;;;;5052368;28;20178;-62
2022/12/25 10:36:32;;;;;;;1.77;1.63;;;16.70;56.10;;;;;;5050689;28;20179;-62
2022/12/25 10:38:57;;;;;;;3.25;1.80;;;16.70;56.30;;;;;;5051931;28;20633;-62
2022/12/25 10:41:48;;;;;;;3.33;2.30;;;16.70;56.50;;;;;;5053052;28;20296;-62
2022/12/25 10:44:23;;;;;;;3.50;1.90;;;16.80;56.60;;;;;;5052317;28;20171;-61
2022/12/25 10:46:58;;;;;;;3.08;1.90;;;16.80;56.90;;;;;;5051422;28;20171;-66
2022/12/25 10:49:33;;;;;;;5.07;2.20;;;16.80;57.50;;;;;;5051191;28;20179;-65
2022/12/25 10:51:58;;;;;;;4.38;2.00;;;16.80;57.30;;;;;;5051366;28;20189;-66
2022/12/25 10:54:32;;;;;;;2.47;1.63;;;16.80;57.20;;;;;;5052142;28;20531;-67
2022/12/25 10:57:25;;;;;;;2.03;1.70;;;16.90;57.30;;;;;;5052207;28;20183;-65
2022/12/25 10:59:54;;;;;;;3.80;2.10;;;17.00;57.60;;;;;;5052199;28;20241;-66
2022/12/25 11:02:33;;;;;;;2.83;1.67;;;17.10;57.50;;;;;;5055815;28;20210;-66
2022/12/25 11:05:06;;;;;;;2.15;1.60;;;17.20;57.40;;;;;;5054442;28;20179;-65
2022/12/25 11:07:32;;;;;;;2.03;1.83;;;17.40;57.20;;;;;;5053443;28;20194;-63
2022/12/25 11:09:59;;;;;;;1.80;1.55;;;17.70;56.80;;;;;;5054729;28;20183;-63
2022/12/25 11:12:31;;;;;;;3.22;1.63;;;17.80;56.60;;;;;;5054529;28;20179;-65
2022/12/25 11:14:58;;;;;;;2.33;1.85;;;18.00;56.60;;;;;;5053430;28;20171;-66
2022/12/25 11:17:24;;;;;;;3.55;1.88;;;18.20;56.50;;;;;;5055333;28;20214;-67
2022/12/25 11:19:51;;;;;;;2.95;1.83;;;18.50;56.00;;;;;;5054095;28;20179;-67
2022/12/25 11:22:20;;;;;;;2.58;1.80;;;18.70;55.70;;;;;;5054699;28;20238;-68
2022/12/25 11:24:45;;;;;;;4.53;2.22;;;18.80;55.30;;;;;;5055092;28;20171;-65
2022/12/25 11:27:26;;;;;;;3.85;1.90;;;18.90;55.10;;;;;;5054676;28;20171;-66
2022/12/25 11:30:00;;;;;;;4.03;1.80;;;19.10;54.80;;;;;;5053725;28;20185;-65
2022/12/25 11:32:33;;;;;;;3.60;2.17;;;19.20;54.50;;;;;;5055290;28;20205;-66
2022/12/25 11:34:59;;;;;;;3.92;1.85;;;19.30;54.30;;;;;;5054472;28;20179;-66
2022/12/25 11:37:36;;;;;;;2.65;1.90;;;19.40;54.10;;;;;;5053956;28;20163;-67
2022/12/25 11:40:02;;;;;;;2.55;1.90;;;19.60;53.90;;;;;;5054925;28;20186;-66
2022/12/25 11:42:39;;;;;;;1.95;1.60;;;19.60;53.80;;;;;;5054029;28;20305;-66
2022/12/25 11:45:11;;;;;;;3.85;1.73;;;19.60;53.80;;;;;;5053568;28;20600;-64
2022/12/25 11:47:50;;;;;;;2.97;1.73;;;19.60;53.80;;;;;;5054706;28;20187;-65
2022/12/25 11:50:37;;;;;;;2.80;1.92;;;19.60;53.80;;;;;;5053097;28;20206;-66
2022/12/25 11:53:05;;;;;;;3.85;1.98;;;19.60;53.70;;;;;;5053543;28;20220;-66
2022/12/25 11:55:38;;;;;;;3.80;1.63;;;19.70;53.90;;;;;;5052494;28;20183;-67
2022/12/25 11:58:19;;;;;;;3.30;1.73;;;19.60;53.80;;;;;;5054598;28;20781;-67
2022/12/25 12:00:45;;;;;;;5.13;1.83;;;19.60;53.70;;;;;;5053249;28;20207;-64
2022/12/25 12:03:19;;;;;;;3.38;1.88;;;19.60;53.80;;;;;;5053644;28;20211;-62
2022/12/25 12:05:50;;;;;;;5.78;2.08;;;19.50;53.80;;;;;;5053314;28;20249;-67
2022/12/25 12:08:16;;;;;;;5.90;1.80;;;19.50;54.20;;;;;;5054603;28;20179;-66
2022/12/25 12:11:16;;;;;;;5.95;1.85;;;19.40;54.20;;;;;;5052697;28;20629;-66
2022/12/25 12:13:55;;;;;;;5.32;2.15;;;19.50;54.30;;;;;;5052349;28;20193;-67
2022/12/25 12:16:21;;;;;;;3.33;1.65;;;19.50;54.30;;;;;;5053377;28;20233;-66
2022/12/25 12:18:46;;;;;;;4.53;1.60;;;19.50;54.30;;;;;;5052402;28;20250;-68
2022/12/25 12:21:23;;;;;;;3.25;1.85;;;19.50;54.30;;;;;;5054254;28;20171;-68
2022/12/25 12:24:12;;;;;;;3.33;1.63;;;19.60;54.30;;;;;;5053249;28;20269;-68
2022/12/25 12:26:39;;;;;;;3.97;1.83;;;19.60;54.40;;;;;;5050775;28;20544;-66
2022/12/25 12:29:18;;;;;;;2.90;1.63;;;19.60;54.30;;;;;;5054150;28;20242;-66
2022/12/25 12:31:47;;;;;;;2.22;2.00;;;19.60;54.20;;;;;;5051771;28;20189;-65
2022/12/25 12:34:22;;;;;;;3.88;1.92;;;19.70;54.30;;;;;;5052727;28;20262;-67
2022/12/25 12:36:49;;;;;;;2.20;1.92;;;19.70;54.20;;;;;;5052406;28;20167;-66
2022/12/25 12:39:25;;;;;;;2.88;1.58;;;19.70;54.20;;;;;;5052221;28;20178;-67
2022/12/25 12:41:50;;;;;;;2.05;1.60;;;19.70;54.20;;;;;;5052431;28;20268;-68
2022/12/25 12:44:16;;;;;;;2.63;1.95;;;19.70;54.30;;;;;;5053904;28;20175;-67
2022/12/25 12:46:50;;;;;;;2.75;1.70;;;19.70;54.40;;;;;;5051872;28;20312;-66
2022/12/25 12:49:23;;;;;;;2.92;1.70;;;19.70;54.30;;;;;;5052625;28;20646;-66
2022/12/25 12:51:49;;;;;;;2.17;1.70;;;19.70;54.30;;;;;;5052876;28;20233;-66
2022/12/25 12:54:19;;;;;;;2.35;1.60;;;19.70;54.20;;;;;;5052693;28;20584;-67
2022/12/25 12:57:01;;;;;;;1.90;1.80;;;19.70;54.20;;;;;;5053323;28;20183;-69
2022/12/25 12:59:34;;;;;;;3.53;1.70;;;19.70;54.20;;;;;;5052906;28;20186;-67
2022/12/25 13:02:26;;;;;;;2.42;1.75;;;19.70;54.40;;;;;;5052518;28;20302;-66
2022/12/25 13:05:01;;;;;;;2.80;1.88;;;19.70;54.40;;;;;;5051896;28;20556;-65
2022/12/25 13:08:06;;;;;;;3.67;1.70;;;19.70;54.40;;;;;;5051512;28;20261;-64
2022/12/25 13:10:36;;;;;;;1.50;1.40;;;19.80;54.30;;;;;;5051556;28;20218;-65
2022/12/25 13:13:14;;;;;;;1.77;1.67;;;19.70;54.30;;;;;;5051496;28;20179;-66
2022/12/25 13:15:40;;;;;;;2.30;1.52;;;19.80;54.30;;;;;;5051650;28;20214;-66
2022/12/25 13:18:06;;;;;;;2.95;1.98;;;19.80;54.40;;;;;;5053154;28;20186;-66
2022/12/25 13:20:40;;;;;;;2.28;1.42;;;19.80;54.40;;;;;;5050939;28;20182;-67
2022/12/25 13:23:23;;;;;;;1.83;1.60;;;19.80;54.30;;;;;;5052442;28;20206;-66
2022/12/25 13:26:15;;;;;;;1.85;1.55;;;19.80;54.30;;;;;;5052877;28;20250;-66
2022/12/25 13:28:41;;;;;;;4.10;2.05;;;19.70;54.40;;;;;;5049613;28;20183;-65
2022/12/25 13:31:12;;;;;;;1.83;1.73;;;19.70;54.70;;;;;;5053191;28;20185;-66
2022/12/25 13:33:38;;;;;;;2.42;1.70;;;19.50;54.70;;;;;;5052152;28;20199;-64
2022/12/25 13:36:08;;;;;;;2.88;2.03;;;19.50;54.90;;;;;;5053203;28;20258;-64
2022/12/25 13:38:34;;;;;;;1.95;1.25;;;19.40;55.00;;;;;;5051555;28;20241;-64
2022/12/25 13:43:44;;;;;;;1.30;1.20;;;19.40;55.30;;;;;;5052555;28;20586;-64
2022/12/25 13:46:13;;;;;;;1.63;1.52;;;19.30;55.30;;;;;;5052738;28;20167;-64
2022/12/25 13:48:39;;;;;;;2.33;1.50;;;19.30;55.40;;;;;;5051620;28;20660;-64
2022/12/25 13:51:11;;;;;;;1.58;1.48;;;19.30;55.40;;;;;;5051805;28;20268;-63
2022/12/25 13:53:36;;;;;;;1.50;1.40;;;19.40;55.40;;;;;;5052383;28;20209;-64
2022/12/25 13:56:02;;;;;;;2.35;1.70;;;19.40;55.40;;;;;;5050941;28;20171;-64
2022/12/25 13:58:32;;;;;;;3.00;1.73;;;19.40;55.40;;;;;;5052610;28;20174;-64
2022/12/25 14:01:02;;;;;;;1.60;1.50;;;19.40;55.40;;;;;;5051697;28;20259;-64
2022/12/25 14:03:40;;;;;;;2.83;1.45;;;19.40;55.50;;;;;;5051879;28;20272;-64
2022/12/25 14:06:19;;;;;;;1.52;1.42;;;19.40;55.40;;;;;;5052822;28;20205;-64
2022/12/25 14:08:45;;;;;;;1.98;1.40;;;19.50;55.40;;;;;;5051653;28;20174;-64
2022/12/25 14:11:16;;;;;;;1.90;1.40;;;19.50;55.40;;;;;;5051526;28;20198;-65
2022/12/25 14:13:42;;;;;;;1.92;1.50;;;19.50;55.40;;;;;;5051160;28;20183;-65
2022/12/25 14:16:08;;;;;;;1.38;1.27;;;19.50;55.30;;;;;;5050856;28;20614;-66
2022/12/25 14:18:34;;;;;;;1.50;1.40;;;19.50;55.40;;;;;;5052098;28;20179;-65
2022/12/25 14:21:09;;;;;;;2.13;1.60;;;19.50;55.30;;;;;;5052705;28;20175;-65
2022/12/25 14:23:40;;;;;;;1.77;1.17;;;19.50;55.30;;;;;;5050424;28;20197;-64
2022/12/25 14:26:06;;;;;;;1.45;1.33;;;19.50;55.30;;;;;;5052613;28;20221;-64
2022/12/25 14:28:33;;;;;;;2.28;1.65;;;19.40;55.30;;;;;;5052152;28;20584;-64
2022/12/25 14:31:01;;;;;;;1.88;1.50;;;19.40;55.30;;;;;;5050656;28;20601;-64
2022/12/25 14:33:27;;;;;;;2.38;1.38;;;19.40;55.40;;;;;;5052721;28;20691;-64
2022/12/25 14:35:52;;;;;;;1.27;1.10;;;19.40;55.50;;;;;;5056018;28;20167;-65
2022/12/25 14:38:22;;;;;;;1.58;1.48;;;19.30;55.40;;;;;;5054352;28;20171;-65
2022/12/25 14:41:00;;;;;;;2.80;1.67;;;19.40;55.60;;;;;;5055751;28;20646;-64
2022/12/25 14:43:26;;;;;;;1.83;1.38;;;19.30;55.60;;;;;;5054796;28;20260;-65
2022/12/25 14:45:59;;;;;;;2.67;1.90;;;19.30;55.70;;;;;;5054976;28;20179;-65